Terminal Aerodrome Forecast
Issued by NWS Portland, OR

Current Version | Previous Version | Text Only | Print | Product List | Glossary On
Versions: 1 2 3 4 5 6 7 8 9 10 11 12 13 14 15 16 17 18 19 20 21 22 23 24 25 26 27 28 29 30 31 32 33 34 35 36
000
FTUS46 KPQR 200925 AAA
TAFSLE
TAF AMD
KSLE 200925Z 2009/2106 16005KT P6SM -RA SCT025 BKN045 OVC070
     FM201200 18007KT 4SM -RA BR SCT015 BKN025 OVC045
     FM201700 20010KT P6SM VCSH SCT025 BKN050
     FM202000 19006KT P6SM -SHRA SCT025 BKN050=

USA.gov is the U.S. government's official web portal to all federal, state and local government web resources and services.